sensor_id;sensor_type;location;lat;lon;timestamp;P1;durP1;ratioP1;P2;durP2;ratioP2
39888;SDS011;25563;50.844;4.308;2023-06-14T00:01:57;8.55;;;4.97;;
39888;SDS011;25563;50.844;4.308;2023-06-14T00:04:23;11.73;;;5.65;;
39888;SDS011;25563;50.844;4.308;2023-06-14T00:06:50;5.70;;;5.18;;
39888;SDS011;25563;50.844;4.308;2023-06-14T00:09:16;5.38;;;4.78;;
39888;SDS011;25563;50.844;4.308;2023-06-14T00:11:44;11.17;;;4.83;;
39888;SDS011;25563;50.844;4.308;2023-06-14T00:14:10;8.10;;;4.55;;
39888;SDS011;25563;50.844;4.308;2023-06-14T00:16:36;9.63;;;5.05;;
39888;SDS011;25563;50.844;4.308;2023-06-14T00:19:02;8.30;;;5.25;;
39888;SDS011;25563;50.844;4.308;2023-06-14T00:21:30;10.98;;;5.43;;
39888;SDS011;25563;50.844;4.308;2023-06-14T00:23:57;8.38;;;4.32;;
39888;SDS011;25563;50.844;4.308;2023-06-14T00:26:24;12.48;;;4.93;;
39888;SDS011;25563;50.844;4.308;2023-06-14T00:28:51;6.93;;;4.53;;
39888;SDS011;25563;50.844;4.308;2023-06-14T00:31:17;8.80;;;4.93;;
39888;SDS011;25563;50.844;4.308;2023-06-14T00:33:43;7.07;;;5.03;;
39888;SDS011;25563;50.844;4.308;2023-06-14T00:36:10;12.95;;;5.53;;
39888;SDS011;25563;50.844;4.308;2023-06-14T00:38:36;8.15;;;4.78;;
39888;SDS011;25563;50.844;4.308;2023-06-14T00:41:02;10.90;;;5.00;;
39888;SDS011;25563;50.844;4.308;2023-06-14T00:43:28;5.63;;;5.10;;
39888;SDS011;25563;50.844;4.308;2023-06-14T00:45:55;9.35;;;4.90;;
39888;SDS011;25563;50.844;4.308;2023-06-14T00:48:21;8.13;;;4.75;;
39888;SDS011;25563;50.844;4.308;2023-06-14T00:50:47;6.07;;;5.47;;
39888;SDS011;25563;50.844;4.308;2023-06-14T00:53:16;8.98;;;5.13;;
39888;SDS011;25563;50.844;4.308;2023-06-14T00:55:45;7.13;;;4.65;;
39888;SDS011;25563;50.844;4.308;2023-06-14T00:58:12;5.03;;;4.63;;
39888;SDS011;25563;50.844;4.308;2023-06-14T01:00:39;6.03;;;4.90;;
39888;SDS011;25563;50.844;4.308;2023-06-14T01:03:05;5.50;;;5.10;;
39888;SDS011;25563;50.844;4.308;2023-06-14T01:05:31;5.22;;;4.72;;
39888;SDS011;25563;50.844;4.308;2023-06-14T01:10:53;7.25;;;4.70;;
39888;SDS011;25563;50.844;4.308;2023-06-14T01:13:34;10.75;;;5.55;;
39888;SDS011;25563;50.844;4.308;2023-06-14T01:16:02;7.80;;;4.65;;
39888;SDS011;25563;50.844;4.308;2023-06-14T01:18:28;9.77;;;5.65;;
39888;SDS011;25563;50.844;4.308;2023-06-14T01:20:57;7.70;;;5.75;;
39888;SDS011;25563;50.844;4.308;2023-06-14T01:23:23;6.93;;;4.93;;
39888;SDS011;25563;50.844;4.308;2023-06-14T01:25:50;7.25;;;4.80;;
39888;SDS011;25563;50.844;4.308;2023-06-14T01:28:20;5.55;;;4.82;;
39888;SDS011;25563;50.844;4.308;2023-06-14T01:30:51;9.02;;;4.95;;
39888;SDS011;25563;50.844;4.308;2023-06-14T01:33:24;10.57;;;5.10;;
39888;SDS011;25563;50.844;4.308;2023-06-14T01:35:52;5.30;;;4.80;;
39888;SDS011;25563;50.844;4.308;2023-06-14T01:38:21;7.20;;;4.80;;
39888;SDS011;25563;50.844;4.308;2023-06-14T01:40:50;5.90;;;5.43;;
39888;SDS011;25563;50.844;4.308;2023-06-14T01:43:18;6.00;;;5.55;;
39888;SDS011;25563;50.844;4.308;2023-06-14T01:45:46;6.63;;;5.40;;
39888;SDS011;25563;50.844;4.308;2023-06-14T01:48:15;5.43;;;4.97;;
39888;SDS011;25563;50.844;4.308;2023-06-14T01:50:42;6.32;;;4.97;;
39888;SDS011;25563;50.844;4.308;2023-06-14T01:53:08;11.80;;;5.32;;
39888;SDS011;25563;50.844;4.308;2023-06-14T01:55:35;5.68;;;4.97;;
39888;SDS011;25563;50.844;4.308;2023-06-14T01:58:02;7.47;;;4.75;;
39888;SDS011;25563;50.844;4.308;2023-06-14T02:00:29;5.90;;;5.40;;
39888;SDS011;25563;50.844;4.308;2023-06-14T02:02:55;6.70;;;5.90;;
39888;SDS011;25563;50.844;4.308;2023-06-14T02:05:22;8.93;;;6.18;;
39888;SDS011;25563;50.844;4.308;2023-06-14T02:07:47;17.02;;;5.57;;
39888;SDS011;25563;50.844;4.308;2023-06-14T02:10:13;11.30;;;6.25;;
39888;SDS011;25563;50.844;4.308;2023-06-14T02:12:40;8.48;;;5.68;;
39888;SDS011;25563;50.844;4.308;2023-06-14T02:15:06;6.78;;;5.90;;
39888;SDS011;25563;50.844;4.308;2023-06-14T02:17:33;11.73;;;5.75;;
39888;SDS011;25563;50.844;4.308;2023-06-14T02:20:00;7.57;;;5.82;;
39888;SDS011;25563;50.844;4.308;2023-06-14T02:22:26;11.02;;;5.95;;
39888;SDS011;25563;50.844;4.308;2023-06-14T02:24:52;10.52;;;6.47;;
39888;SDS011;25563;50.844;4.308;2023-06-14T02:27:18;8.82;;;6.10;;
39888;SDS011;25563;50.844;4.308;2023-06-14T02:29:43;6.57;;;5.95;;
39888;SDS011;25563;50.844;4.308;2023-06-14T02:32:09;10.07;;;6.00;;
39888;SDS011;25563;50.844;4.308;2023-06-14T02:34:36;8.38;;;6.20;;
39888;SDS011;25563;50.844;4.308;2023-06-14T02:37:02;6.78;;;5.88;;
39888;SDS011;25563;50.844;4.308;2023-06-14T02:39:28;6.93;;;6.10;;
39888;SDS011;25563;50.844;4.308;2023-06-14T02:41:54;8.77;;;5.85;;
39888;SDS011;25563;50.844;4.308;2023-06-14T02:44:24;6.97;;;5.53;;
39888;SDS011;25563;50.844;4.308;2023-06-14T02:46:54;7.97;;;6.15;;
39888;SDS011;25563;50.844;4.308;2023-06-14T02:49:21;9.15;;;6.85;;
39888;SDS011;25563;50.844;4.308;2023-06-14T02:51:47;9.30;;;6.35;;
39888;SDS011;25563;50.844;4.308;2023-06-14T02:54:13;6.25;;;5.68;;
39888;SDS011;25563;50.844;4.308;2023-06-14T02:56:39;10.05;;;6.63;;
39888;SDS011;25563;50.844;4.308;2023-06-14T02:59:05;8.50;;;6.35;;
39888;SDS011;25563;50.844;4.308;2023-06-14T03:01:32;7.78;;;7.07;;
39888;SDS011;25563;50.844;4.308;2023-06-14T03:03:59;6.57;;;5.90;;
39888;SDS011;25563;50.844;4.308;2023-06-14T03:06:28;8.50;;;6.97;;
39888;SDS011;25563;50.844;4.308;2023-06-14T03:08:58;16.50;;;7.05;;
39888;SDS011;25563;50.844;4.308;2023-06-14T03:11:26;10.13;;;6.50;;
39888;SDS011;25563;50.844;4.308;2023-06-14T03:13:53;12.73;;;6.80;;
39888;SDS011;25563;50.844;4.308;2023-06-14T03:16:19;7.80;;;7.15;;
39888;SDS011;25563;50.844;4.308;2023-06-14T03:18:48;6.55;;;6.10;;
39888;SDS011;25563;50.844;4.308;2023-06-14T03:21:14;7.63;;;6.90;;
39888;SDS011;25563;50.844;4.308;2023-06-14T03:23:41;12.30;;;6.75;;
39888;SDS011;25563;50.844;4.308;2023-06-14T03:26:07;10.55;;;7.63;;
39888;SDS011;25563;50.844;4.308;2023-06-14T03:28:33;7.60;;;6.93;;
39888;SDS011;25563;50.844;4.308;2023-06-14T03:30:59;7.85;;;6.60;;
39888;SDS011;25563;50.844;4.308;2023-06-14T03:33:26;7.47;;;6.75;;
39888;SDS011;25563;50.844;4.308;2023-06-14T03:35:52;7.90;;;7.15;;
39888;SDS011;25563;50.844;4.308;2023-06-14T03:38:18;10.40;;;6.78;;
39888;SDS011;25563;50.844;4.308;2023-06-14T03:40:43;22.10;;;8.10;;
39888;SDS011;25563;50.844;4.308;2023-06-14T03:43:10;9.82;;;7.40;;
39888;SDS011;25563;50.844;4.308;2023-06-14T03:45:36;9.35;;;7.18;;
39888;SDS011;25563;50.844;4.308;2023-06-14T03:48:02;10.70;;;6.70;;
39888;SDS011;25563;50.844;4.308;2023-06-14T03:50:31;13.85;;;6.63;;
39888;SDS011;25563;50.844;4.308;2023-06-14T03:52:57;8.65;;;7.00;;
39888;SDS011;25563;50.844;4.308;2023-06-14T03:55:23;14.45;;;7.13;;
39888;SDS011;25563;50.844;4.308;2023-06-14T03:57:51;15.85;;;7.47;;
39888;SDS011;25563;50.844;4.308;2023-06-14T04:00:17;12.32;;;7.10;;
39888;SDS011;25563;50.844;4.308;2023-06-14T04:02:43;18.83;;;6.95;;
39888;SDS011;25563;50.844;4.308;2023-06-14T04:05:09;10.55;;;7.32;;
39888;SDS011;25563;50.844;4.308;2023-06-14T04:07:35;10.48;;;7.55;;
39888;SDS011;25563;50.844;4.308;2023-06-14T04:10:10;13.68;;;7.07;;
39888;SDS011;25563;50.844;4.308;2023-06-14T04:12:40;7.45;;;6.85;;
39888;SDS011;25563;50.844;4.308;2023-06-14T04:15:06;18.10;;;7.38;;
39888;SDS011;25563;50.844;4.308;2023-06-14T04:17:33;7.68;;;6.97;;
39888;SDS011;25563;50.844;4.308;2023-06-14T04:19:59;9.48;;;6.57;;
39888;SDS011;25563;50.844;4.308;2023-06-14T04:22:26;8.82;;;6.93;;
39888;SDS011;25563;50.844;4.308;2023-06-14T04:24:56;24.42;;;18.88;;
39888;SDS011;25563;50.844;4.308;2023-06-14T04:27:22;7.88;;;7.10;;
39888;SDS011;25563;50.844;4.308;2023-06-14T04:29:54;14.65;;;6.90;;
39888;SDS011;25563;50.844;4.308;2023-06-14T04:32:24;8.10;;;6.97;;
39888;SDS011;25563;50.844;4.308;2023-06-14T04:34:54;17.40;;;7.10;;
39888;SDS011;25563;50.844;4.308;2023-06-14T04:37:20;7.75;;;7.10;;
39888;SDS011;25563;50.844;4.308;2023-06-14T04:39:47;12.98;;;7.13;;
39888;SDS011;25563;50.844;4.308;2023-06-14T04:42:13;8.48;;;7.25;;
39888;SDS011;25563;50.844;4.308;2023-06-14T04:44:42;7.85;;;6.93;;
39888;SDS011;25563;50.844;4.308;2023-06-14T04:47:09;15.40;;;7.10;;
39888;SDS011;25563;50.844;4.308;2023-06-14T04:49:37;12.50;;;7.63;;
39888;SDS011;25563;50.844;4.308;2023-06-14T04:52:03;9.73;;;6.93;;
39888;SDS011;25563;50.844;4.308;2023-06-14T04:54:29;10.88;;;7.90;;
39888;SDS011;25563;50.844;4.308;2023-06-14T04:56:56;14.32;;;8.02;;
39888;SDS011;25563;50.844;4.308;2023-06-14T04:59:22;9.00;;;8.18;;
39888;SDS011;25563;50.844;4.308;2023-06-14T05:01:49;12.00;;;8.43;;
39888;SDS011;25563;50.844;4.308;2023-06-14T05:04:15;11.82;;;7.28;;
39888;SDS011;25563;50.844;4.308;2023-06-14T05:06:42;17.92;;;8.02;;
39888;SDS011;25563;50.844;4.308;2023-06-14T05:09:13;10.18;;;7.18;;
39888;SDS011;25563;50.844;4.308;2023-06-14T05:11:39;8.98;;;7.40;;
39888;SDS011;25563;50.844;4.308;2023-06-14T05:14:10;13.63;;;8.07;;
39888;SDS011;25563;50.844;4.308;2023-06-14T05:16:36;10.95;;;8.13;;
39888;SDS011;25563;50.844;4.308;2023-06-14T05:19:02;8.30;;;7.60;;
39888;SDS011;25563;50.844;4.308;2023-06-14T05:21:29;9.68;;;7.70;;
39888;SDS011;25563;50.844;4.308;2023-06-14T05:23:55;17.52;;;7.88;;
39888;SDS011;25563;50.844;4.308;2023-06-14T05:26:21;11.60;;;8.13;;
39888;SDS011;25563;50.844;4.308;2023-06-14T05:28:50;15.98;;;7.55;;
39888;SDS011;25563;50.844;4.308;2023-06-14T05:31:17;11.98;;;7.43;;
39888;SDS011;25563;50.844;4.308;2023-06-14T05:33:43;14.18;;;8.27;;
39888;SDS011;25563;50.844;4.308;2023-06-14T05:36:09;19.30;;;8.65;;
39888;SDS011;25563;50.844;4.308;2023-06-14T05:38:35;16.92;;;7.72;;
39888;SDS011;25563;50.844;4.308;2023-06-14T05:41:01;14.90;;;7.63;;
39888;SDS011;25563;50.844;4.308;2023-06-14T05:43:27;21.08;;;7.65;;
39888;SDS011;25563;50.844;4.308;2023-06-14T05:45:53;13.07;;;7.22;;
39888;SDS011;25563;50.844;4.308;2023-06-14T05:48:18;12.32;;;7.22;;
39888;SDS011;25563;50.844;4.308;2023-06-14T05:50:44;23.23;;;8.38;;
39888;SDS011;25563;50.844;4.308;2023-06-14T05:53:11;14.93;;;7.10;;
39888;SDS011;25563;50.844;4.308;2023-06-14T05:55:37;21.73;;;8.02;;
39888;SDS011;25563;50.844;4.308;2023-06-14T05:58:03;11.82;;;7.68;;
39888;SDS011;25563;50.844;4.308;2023-06-14T06:00:28;33.13;;;7.43;;
39888;SDS011;25563;50.844;4.308;2023-06-14T06:02:55;65.80;;;9.35;;
39888;SDS011;25563;50.844;4.308;2023-06-14T06:05:22;7.47;;;6.70;;
39888;SDS011;25563;50.844;4.308;2023-06-14T06:07:48;17.70;;;6.43;;
39888;SDS011;25563;50.844;4.308;2023-06-14T06:10:14;14.25;;;7.15;;
39888;SDS011;25563;50.844;4.308;2023-06-14T06:12:43;21.40;;;8.27;;
39888;SDS011;25563;50.844;4.308;2023-06-14T06:15:10;12.90;;;6.57;;
39888;SDS011;25563;50.844;4.308;2023-06-14T06:17:39;36.50;;;9.70;;
39888;SDS011;25563;50.844;4.308;2023-06-14T06:20:05;15.10;;;7.38;;
39888;SDS011;25563;50.844;4.308;2023-06-14T06:22:35;14.65;;;7.68;;
39888;SDS011;25563;50.844;4.308;2023-06-14T06:25:01;9.27;;;6.47;;
39888;SDS011;25563;50.844;4.308;2023-06-14T06:27:27;9.70;;;6.22;;
39888;SDS011;25563;50.844;4.308;2023-06-14T06:29:53;9.55;;;7.05;;
39888;SDS011;25563;50.844;4.308;2023-06-14T06:32:19;16.42;;;7.93;;
39888;SDS011;25563;50.844;4.308;2023-06-14T06:34:53;9.70;;;6.50;;
39888;SDS011;25563;50.844;4.308;2023-06-14T06:37:22;7.85;;;6.63;;
39888;SDS011;25563;50.844;4.308;2023-06-14T06:39:49;16.73;;;6.30;;
39888;SDS011;25563;50.844;4.308;2023-06-14T06:42:15;13.00;;;7.35;;
39888;SDS011;25563;50.844;4.308;2023-06-14T06:44:40;23.55;;;7.28;;
39888;SDS011;25563;50.844;4.308;2023-06-14T06:47:06;11.05;;;6.78;;
39888;SDS011;25563;50.844;4.308;2023-06-14T06:49:32;53.22;;;9.30;;
39888;SDS011;25563;50.844;4.308;2023-06-14T06:52:05;17.10;;;6.80;;
39888;SDS011;25563;50.844;4.308;2023-06-14T06:54:31;21.77;;;7.55;;
39888;SDS011;25563;50.844;4.308;2023-06-14T06:56:58;15.63;;;6.40;;
39888;SDS011;25563;50.844;4.308;2023-06-14T06:59:25;13.68;;;6.05;;
39888;SDS011;25563;50.844;4.308;2023-06-14T07:01:51;11.05;;;6.00;;
39888;SDS011;25563;50.844;4.308;2023-06-14T07:04:17;13.75;;;5.60;;
39888;SDS011;25563;50.844;4.308;2023-06-14T07:06:43;6.60;;;5.60;;
39888;SDS011;25563;50.844;4.308;2023-06-14T07:09:09;12.48;;;5.72;;
39888;SDS011;25563;50.844;4.308;2023-06-14T07:11:39;8.55;;;5.25;;
39888;SDS011;25563;50.844;4.308;2023-06-14T07:14:06;12.25;;;5.50;;
39888;SDS011;25563;50.844;4.308;2023-06-14T07:16:32;10.63;;;5.72;;
39888;SDS011;25563;50.844;4.308;2023-06-14T07:18:57;12.77;;;5.55;;
39888;SDS011;25563;50.844;4.308;2023-06-14T07:21:23;7.88;;;5.07;;
39888;SDS011;25563;50.844;4.308;2023-06-14T07:23:51;7.35;;;4.95;;
39888;SDS011;25563;50.844;4.308;2023-06-14T07:26:17;10.27;;;6.22;;
39888;SDS011;25563;50.844;4.308;2023-06-14T07:28:45;7.35;;;5.32;;
39888;SDS011;25563;50.844;4.308;2023-06-14T07:31:12;6.38;;;4.88;;
39888;SDS011;25563;50.844;4.308;2023-06-14T07:33:38;6.30;;;4.93;;
39888;SDS011;25563;50.844;4.308;2023-06-14T07:36:04;11.82;;;5.60;;
39888;SDS011;25563;50.844;4.308;2023-06-14T07:38:30;45.20;;;7.78;;
39888;SDS011;25563;50.844;4.308;2023-06-14T07:40:56;18.05;;;5.03;;
39888;SDS011;25563;50.844;4.308;2023-06-14T07:43:22;8.82;;;5.32;;
39888;SDS011;25563;50.844;4.308;2023-06-14T07:45:48;14.13;;;5.55;;
39888;SDS011;25563;50.844;4.308;2023-06-14T07:48:13;30.95;;;5.88;;
39888;SDS011;25563;50.844;4.308;2023-06-14T07:50:39;8.07;;;5.25;;
39888;SDS011;25563;50.844;4.308;2023-06-14T07:53:06;19.10;;;5.68;;
39888;SDS011;25563;50.844;4.308;2023-06-14T07:55:32;11.52;;;5.63;;
39888;SDS011;25563;50.844;4.308;2023-06-14T07:57:58;34.58;;;7.07;;
39888;SDS011;25563;50.844;4.308;2023-06-14T08:00:24;8.18;;;5.40;;
39888;SDS011;25563;50.844;4.308;2023-06-14T08:02:50;246.52;;;22.17;;
39888;SDS011;25563;50.844;4.308;2023-06-14T08:05:17;43.25;;;6.78;;
39888;SDS011;25563;50.844;4.308;2023-06-14T08:07:42;10.60;;;5.82;;
39888;SDS011;25563;50.844;4.308;2023-06-14T08:10:09;10.38;;;5.47;;
39888;SDS011;25563;50.844;4.308;2023-06-14T08:12:35;7.55;;;5.45;;
39888;SDS011;25563;50.844;4.308;2023-06-14T08:15:02;50.97;;;8.23;;
39888;SDS011;25563;50.844;4.308;2023-06-14T08:17:28;11.77;;;5.63;;
39888;SDS011;25563;50.844;4.308;2023-06-14T08:19:54;19.00;;;6.10;;
39888;SDS011;25563;50.844;4.308;2023-06-14T08:22:22;14.97;;;5.50;;
39888;SDS011;25563;50.844;4.308;2023-06-14T08:24:49;13.40;;;5.68;;
39888;SDS011;25563;50.844;4.308;2023-06-14T08:27:15;12.68;;;5.60;;
39888;SDS011;25563;50.844;4.308;2023-06-14T08:29:41;5.95;;;5.35;;
39888;SDS011;25563;50.844;4.308;2023-06-14T08:32:08;16.55;;;5.35;;
39888;SDS011;25563;50.844;4.308;2023-06-14T08:34:35;25.00;;;6.00;;
39888;SDS011;25563;50.844;4.308;2023-06-14T08:37:01;25.23;;;6.68;;
39888;SDS011;25563;50.844;4.308;2023-06-14T08:39:26;14.30;;;5.25;;
39888;SDS011;25563;50.844;4.308;2023-06-14T08:41:52;22.35;;;6.35;;
39888;SDS011;25563;50.844;4.308;2023-06-14T08:44:19;65.38;;;7.97;;
39888;SDS011;25563;50.844;4.308;2023-06-14T08:46:45;16.50;;;4.80;;
39888;SDS011;25563;50.844;4.308;2023-06-14T08:49:13;13.93;;;5.20;;
39888;SDS011;25563;50.844;4.308;2023-06-14T08:51:42;17.40;;;6.25;;
39888;SDS011;25563;50.844;4.308;2023-06-14T08:54:09;16.48;;;4.90;;
39888;SDS011;25563;50.844;4.308;2023-06-14T08:56:40;9.82;;;4.80;;
39888;SDS011;25563;50.844;4.308;2023-06-14T08:59:06;9.07;;;4.88;;
39888;SDS011;25563;50.844;4.308;2023-06-14T09:01:36;13.77;;;5.20;;
39888;SDS011;25563;50.844;4.308;2023-06-14T09:04:02;11.43;;;5.72;;
39888;SDS011;25563;50.844;4.308;2023-06-14T09:06:30;10.05;;;5.00;;
39888;SDS011;25563;50.844;4.308;2023-06-14T09:08:58;9.70;;;4.93;;
39888;SDS011;25563;50.844;4.308;2023-06-14T09:11:23;13.32;;;5.53;;
39888;SDS011;25563;50.844;4.308;2023-06-14T09:13:51;10.77;;;5.15;;
39888;SDS011;25563;50.844;4.308;2023-06-14T09:16:17;5.68;;;4.32;;
39888;SDS011;25563;50.844;4.308;2023-06-14T09:18:44;7.53;;;4.95;;
39888;SDS011;25563;50.844;4.308;2023-06-14T09:23:43;6.95;;;4.70;;
39888;SDS011;25563;50.844;4.308;2023-06-14T09:26:16;10.70;;;5.30;;
39888;SDS011;25563;50.844;4.308;2023-06-14T09:28:45;16.73;;;4.93;;
39888;SDS011;25563;50.844;4.308;2023-06-14T09:31:13;16.58;;;5.25;;
39888;SDS011;25563;50.844;4.308;2023-06-14T09:33:44;8.07;;;4.88;;
39888;SDS011;25563;50.844;4.308;2023-06-14T09:36:22;10.27;;;4.90;;
39888;SDS011;25563;50.844;4.308;2023-06-14T09:38:51;24.05;;;5.55;;
39888;SDS011;25563;50.844;4.308;2023-06-14T09:41:32;15.15;;;5.97;;
39888;SDS011;25563;50.844;4.308;2023-06-14T09:44:00;27.30;;;7.03;;
39888;SDS011;25563;50.844;4.308;2023-06-14T09:46:27;17.80;;;5.22;;
39888;SDS011;25563;50.844;4.308;2023-06-14T09:48:55;17.80;;;5.70;;
39888;SDS011;25563;50.844;4.308;2023-06-14T09:51:22;8.43;;;4.90;;
39888;SDS011;25563;50.844;4.308;2023-06-14T09:53:49;13.35;;;4.95;;
39888;SDS011;25563;50.844;4.308;2023-06-14T09:56:21;9.02;;;5.25;;
39888;SDS011;25563;50.844;4.308;2023-06-14T09:58:55;10.25;;;4.97;;
39888;SDS011;25563;50.844;4.308;2023-06-14T10:01:23;5.32;;;4.25;;
39888;SDS011;25563;50.844;4.308;2023-06-14T10:03:55;13.02;;;4.57;;
39888;SDS011;25563;50.844;4.308;2023-06-14T10:06:27;14.15;;;4.53;;
39888;SDS011;25563;50.844;4.308;2023-06-14T10:08:56;7.60;;;4.65;;
39888;SDS011;25563;50.844;4.308;2023-06-14T10:11:28;6.07;;;4.00;;
39888;SDS011;25563;50.844;4.308;2023-06-14T10:13:57;5.97;;;4.57;;
39888;SDS011;25563;50.844;4.308;2023-06-14T10:19:22;6.03;;;4.43;;
39888;SDS011;25563;50.844;4.308;2023-06-14T10:22:08;12.80;;;4.47;;
39888;SDS011;25563;50.844;4.308;2023-06-14T10:27:05;7.72;;;4.30;;
39888;SDS011;25563;50.844;4.308;2023-06-14T10:29:38;14.82;;;4.57;;
39888;SDS011;25563;50.844;4.308;2023-06-14T10:32:27;37.38;;;6.50;;
39888;SDS011;25563;50.844;4.308;2023-06-14T10:37:26;24.17;;;5.05;;
39888;SDS011;25563;50.844;4.308;2023-06-14T10:39:52;12.52;;;4.00;;
39888;SDS011;25563;50.844;4.308;2023-06-14T10:42:19;6.90;;;3.35;;
39888;SDS011;25563;50.844;4.308;2023-06-14T10:44:45;8.38;;;3.95;;
39888;SDS011;25563;50.844;4.308;2023-06-14T10:47:25;10.45;;;3.75;;
39888;SDS011;25563;50.844;4.308;2023-06-14T10:52:35;6.68;;;3.47;;
39888;SDS011;25563;50.844;4.308;2023-06-14T10:55:11;4.43;;;3.42;;
39888;SDS011;25563;50.844;4.308;2023-06-14T10:57:46;8.73;;;3.97;;
39888;SDS011;25563;50.844;4.308;2023-06-14T11:00:23;10.15;;;4.70;;
39888;SDS011;25563;50.844;4.308;2023-06-14T11:11:17;7.05;;;3.88;;
39888;SDS011;25563;50.844;4.308;2023-06-14T11:13:44;9.50;;;3.88;;
39888;SDS011;25563;50.844;4.308;2023-06-14T11:16:14;9.52;;;4.30;;
39888;SDS011;25563;50.844;4.308;2023-06-14T11:18:41;17.15;;;4.05;;
39888;SDS011;25563;50.844;4.308;2023-06-14T11:21:07;10.73;;;3.53;;
39888;SDS011;25563;50.844;4.308;2023-06-14T11:23:36;10.93;;;3.83;;
39888;SDS011;25563;50.844;4.308;2023-06-14T11:26:03;5.47;;;3.88;;
39888;SDS011;25563;50.844;4.308;2023-06-14T11:28:39;4.47;;;4.05;;
39888;SDS011;25563;50.844;4.308;2023-06-14T11:31:06;8.38;;;3.97;;
39888;SDS011;25563;50.844;4.308;2023-06-14T11:33:32;3.88;;;3.50;;
39888;SDS011;25563;50.844;4.308;2023-06-14T11:36:01;15.40;;;4.13;;
39888;SDS011;25563;50.844;4.308;2023-06-14T11:38:27;3.80;;;3.50;;
39888;SDS011;25563;50.844;4.308;2023-06-14T11:40:58;68.68;;;6.60;;
39888;SDS011;25563;50.844;4.308;2023-06-14T11:43:25;9.07;;;3.25;;
39888;SDS011;25563;50.844;4.308;2023-06-14T11:45:52;9.23;;;3.70;;
39888;SDS011;25563;50.844;4.308;2023-06-14T11:48:18;14.45;;;4.35;;
39888;SDS011;25563;50.844;4.308;2023-06-14T11:50:49;14.65;;;3.53;;
39888;SDS011;25563;50.844;4.308;2023-06-14T11:53:16;8.45;;;2.53;;
39888;SDS011;25563;50.844;4.308;2023-06-14T11:55:42;5.40;;;3.13;;
39888;SDS011;25563;50.844;4.308;2023-06-14T11:58:10;5.78;;;3.08;;
39888;SDS011;25563;50.844;4.308;2023-06-14T12:00:36;13.90;;;3.33;;
39888;SDS011;25563;50.844;4.308;2023-06-14T12:03:02;11.13;;;3.00;;
39888;SDS011;25563;50.844;4.308;2023-06-14T12:05:28;7.05;;;2.75;;
39888;SDS011;25563;50.844;4.308;2023-06-14T12:08:01;9.57;;;2.83;;
39888;SDS011;25563;50.844;4.308;2023-06-14T12:10:28;13.48;;;3.42;;
39888;SDS011;25563;50.844;4.308;2023-06-14T12:12:56;11.68;;;2.92;;
39888;SDS011;25563;50.844;4.308;2023-06-14T12:15:23;10.73;;;2.75;;
39888;SDS011;25563;50.844;4.308;2023-06-14T12:17:49;5.75;;;2.67;;
39888;SDS011;25563;50.844;4.308;2023-06-14T12:20:15;5.80;;;2.90;;
39888;SDS011;25563;50.844;4.308;2023-06-14T12:25:30;12.07;;;2.55;;
39888;SDS011;25563;50.844;4.308;2023-06-14T12:27:58;7.90;;;2.45;;
39888;SDS011;25563;50.844;4.308;2023-06-14T12:30:28;3.50;;;2.90;;
39888;SDS011;25563;50.844;4.308;2023-06-14T12:32:54;3.10;;;2.58;;
39888;SDS011;25563;50.844;4.308;2023-06-14T12:35:20;5.30;;;2.80;;
39888;SDS011;25563;50.844;4.308;2023-06-14T12:37:46;4.22;;;2.50;;
39888;SDS011;25563;50.844;4.308;2023-06-14T12:40:12;5.13;;;2.70;;
39888;SDS011;25563;50.844;4.308;2023-06-14T12:42:39;4.82;;;2.25;;
39888;SDS011;25563;50.844;4.308;2023-06-14T12:45:06;15.75;;;2.97;;
39888;SDS011;25563;50.844;4.308;2023-06-14T12:47:32;4.80;;;2.17;;
39888;SDS011;25563;50.844;4.308;2023-06-14T12:49:58;6.10;;;2.17;;
39888;SDS011;25563;50.844;4.308;2023-06-14T12:52:24;12.55;;;2.70;;
39888;SDS011;25563;50.844;4.308;2023-06-14T12:54:51;6.68;;;2.10;;
39888;SDS011;25563;50.844;4.308;2023-06-14T12:57:17;6.03;;;1.98;;
39888;SDS011;25563;50.844;4.308;2023-06-14T12:59:42;3.38;;;2.47;;
39888;SDS011;25563;50.844;4.308;2023-06-14T13:04:37;10.82;;;2.83;;
39888;SDS011;25563;50.844;4.308;2023-06-14T13:07:03;7.00;;;3.58;;
39888;SDS011;25563;50.844;4.308;2023-06-14T13:09:29;8.45;;;2.20;;
39888;SDS011;25563;50.844;4.308;2023-06-14T13:11:55;12.95;;;2.33;;
39888;SDS011;25563;50.844;4.308;2023-06-14T13:14:21;7.35;;;2.85;;
39888;SDS011;25563;50.844;4.308;2023-06-14T13:16:47;3.83;;;2.20;;
39888;SDS011;25563;50.844;4.308;2023-06-14T13:19:13;8.10;;;2.67;;
39888;SDS011;25563;50.844;4.308;2023-06-14T13:21:39;9.63;;;2.03;;
39888;SDS011;25563;50.844;4.308;2023-06-14T13:24:06;10.32;;;2.22;;
39888;SDS011;25563;50.844;4.308;2023-06-14T13:26:32;7.97;;;2.05;;
39888;SDS011;25563;50.844;4.308;2023-06-14T13:28:58;7.40;;;2.08;;
39888;SDS011;25563;50.844;4.308;2023-06-14T13:31:24;5.70;;;2.30;;
39888;SDS011;25563;50.844;4.308;2023-06-14T13:33:49;12.15;;;2.10;;
39888;SDS011;25563;50.844;4.308;2023-06-14T13:36:15;6.28;;;1.88;;
39888;SDS011;25563;50.844;4.308;2023-06-14T13:38:41;6.05;;;1.65;;
39888;SDS011;25563;50.844;4.308;2023-06-14T13:41:07;16.30;;;2.10;;
39888;SDS011;25563;50.844;4.308;2023-06-14T13:43:33;11.55;;;2.22;;
39888;SDS011;25563;50.844;4.308;2023-06-14T13:45:58;22.20;;;2.83;;
39888;SDS011;25563;50.844;4.308;2023-06-14T13:48:24;7.47;;;1.77;;
39888;SDS011;25563;50.844;4.308;2023-06-14T13:50:50;5.55;;;2.00;;
39888;SDS011;25563;50.844;4.308;2023-06-14T13:53:16;6.32;;;1.75;;
39888;SDS011;25563;50.844;4.308;2023-06-14T13:55:41;5.85;;;2.03;;
39888;SDS011;25563;50.844;4.308;2023-06-14T13:58:07;2.78;;;1.63;;
39888;SDS011;25563;50.844;4.308;2023-06-14T14:00:33;5.28;;;1.60;;
39888;SDS011;25563;50.844;4.308;2023-06-14T14:02:59;3.00;;;1.58;;
39888;SDS011;25563;50.844;4.308;2023-06-14T14:05:25;8.02;;;1.52;;
39888;SDS011;25563;50.844;4.308;2023-06-14T14:07:55;8.00;;;1.70;;
39888;SDS011;25563;50.844;4.308;2023-06-14T14:10:22;7.67;;;2.00;;
39888;SDS011;25563;50.844;4.308;2023-06-14T14:12:50;4.45;;;1.50;;
39888;SDS011;25563;50.844;4.308;2023-06-14T14:15:16;5.22;;;1.30;;
39888;SDS011;25563;50.844;4.308;2023-06-14T14:17:42;3.15;;;1.00;;
39888;SDS011;25563;50.844;4.308;2023-06-14T14:20:08;4.25;;;1.48;;
39888;SDS011;25563;50.844;4.308;2023-06-14T14:22:34;3.38;;;1.30;;
39888;SDS011;25563;50.844;4.308;2023-06-14T14:25:00;4.10;;;1.30;;
39888;SDS011;25563;50.844;4.308;2023-06-14T14:27:26;5.38;;;1.42;;
39888;SDS011;25563;50.844;4.308;2023-06-14T14:29:52;9.48;;;1.15;;
39888;SDS011;25563;50.844;4.308;2023-06-14T14:32:17;6.38;;;1.20;;
39888;SDS011;25563;50.844;4.308;2023-06-14T14:34:43;2.92;;;1.38;;
39888;SDS011;25563;50.844;4.308;2023-06-14T14:37:09;9.65;;;1.20;;
39888;SDS011;25563;50.844;4.308;2023-06-14T14:39:36;3.63;;;0.90;;
39888;SDS011;25563;50.844;4.308;2023-06-14T14:42:02;5.90;;;1.10;;
39888;SDS011;25563;50.844;4.308;2023-06-14T14:44:28;2.67;;;1.63;;
39888;SDS011;25563;50.844;4.308;2023-06-14T14:46:54;3.03;;;1.10;;
39888;SDS011;25563;50.844;4.308;2023-06-14T14:49:21;9.38;;;1.15;;
39888;SDS011;25563;50.844;4.308;2023-06-14T14:51:47;9.50;;;1.48;;
39888;SDS011;25563;50.844;4.308;2023-06-14T14:54:13;3.15;;;1.10;;
39888;SDS011;25563;50.844;4.308;2023-06-14T14:56:38;1.50;;;1.08;;
39888;SDS011;25563;50.844;4.308;2023-06-14T14:59:04;3.38;;;0.80;;
39888;SDS011;25563;50.844;4.308;2023-06-14T15:01:30;3.35;;;1.17;;
39888;SDS011;25563;50.844;4.308;2023-06-14T15:03:56;4.03;;;1.33;;
39888;SDS011;25563;50.844;4.308;2023-06-14T15:06:22;2.60;;;1.00;;
39888;SDS011;25563;50.844;4.308;2023-06-14T15:08:47;4.50;;;1.10;;
39888;SDS011;25563;50.844;4.308;2023-06-14T15:11:13;1.88;;;0.80;;